KOUN/OUN METAR and TAF weather

Enter ICAO airport designator
Station Type Date Time Source
KOUN METAR 2021/05/12 01:45 UTC NOAA

KOUN 120145Z 01010KT 10SM SCT014 OVC022 11/09 A3015


Station Type Date Time Source
KOUN Decoded METAR 2021/05/12 01:45 UTC NOAA

Norman / Max Westheimer, OK, United States (KOUN) 35-13N 097-27W 357M
May 11, 2021 - 09:45 PM EDT / 2021.05.12 0145 UTC
Wind: from the N (010 degrees) at 12 MPH (10 KT):0
Visibility: 10 mile(s):0
Sky conditions: overcast
Temperature: 51 F (11 C)
Dew Point: 48 F (9 C)
Relative Humidity: 87%
Pressure (altimeter): 30.15 in. Hg (1020 hPa)
ob: KOUN 120145Z 01010KT 10SM SCT014 OVC022 11/09 A3015
cycle: 2

Station Type Date Time Source
KOUN TAF 2021/05/11 21:12 UTC NOAA

TAF
AMD KOUN 112109Z 1121/1218 04013KT P6SM OVC018
FM120300 03009KT 6SM BR OVC010

Example: see airport list